Time;durP1;ratioP1;P1;durP2;ratioP2;P2;SDS_P1;SDS_P2;PMS_P1;PMS_P2;Temp;Humidity;BMP_temperature;BMP_pressure;BME280_temperature;BME280_humidity;BME280_pressure;Samples;Min_cycle;Max_cycle;Signal;HPM_P1;HPM_P2
2023/01/18 00:02:54;;;;;;;15.50;8.50;;;;;;;7.46;73.40;99334.75;102061;1292;606527;-69
2023/01/18 00:05:22;;;;;;;26.10;17.20;;;;;;;7.58;72.90;99340.44;104577;1271;59398;-68
2023/01/18 00:07:49;;;;;;;24.40;15.60;;;;;;;7.61;72.77;99344.86;104495;1271;59389;-70
2023/01/18 00:10:16;;;;;;;23.40;15.50;;;;;;;7.68;72.49;99345.13;106442;1272;65455;-70
2023/01/18 00:12:43;;;;;;;26.20;15.00;;;;;;;7.75;72.07;99338.27;104558;1267;63768;-69
2023/01/18 00:15:10;;;;;;;23.20;14.90;;;;;;;7.82;71.80;99338.59;104705;1267;74866;-70
2023/01/18 00:17:46;;;;;;;25.10;15.70;;;;;;;7.83;71.50;99341.67;104425;1270;188660;-70
2023/01/18 00:20:14;;;;;;;22.30;16.20;;;;;;;7.78;71.22;99344.33;104784;1269;59317;-70
2023/01/18 00:22:41;;;;;;;25.40;16.90;;;;;;;7.73;71.07;99339.00;104749;1270;65766;-70
2023/01/18 00:25:10;;;;;;;30.50;17.40;;;;;;;7.68;71.19;99340.33;104783;1267;63601;-70
2023/01/18 00:27:37;;;;;;;23.70;15.90;;;;;;;7.64;71.12;99339.94;104484;1266;66530;-70
2023/01/18 00:30:05;;;;;;;23.80;15.20;;;;;;;7.62;70.99;99330.79;104972;1261;59711;-70
2023/01/18 00:32:32;;;;;;;22.70;14.60;;;;;;;7.64;70.93;99331.73;105034;1261;59664;-69
2023/01/18 00:35:02;;;;;;;22.70;16.60;;;;;;;7.65;71.10;99333.02;105015;1262;66783;-71
2023/01/18 00:37:31;;;;;;;25.10;17.00;;;;;;;7.66;71.30;99328.57;105135;1258;63627;-69
2023/01/18 00:39:58;;;;;;;28.10;17.10;;;;;;;7.67;71.81;99324.80;105245;1258;65135;-70
2023/01/18 00:45:10;;;;;;;20.90;7.60;;;;;;;7.73;71.87;99326.80;105044;1263;59632;-70
2023/01/18 00:47:37;;;;;;;21.40;16.60;;;;;;;7.70;71.85;99327.73;105185;1257;65391;-68
2023/01/18 00:50:05;;;;;;;25.90;16.00;;;;;;;7.68;71.99;99324.92;105057;1258;63814;-70
2023/01/18 00:52:33;;;;;;;24.20;15.40;;;;;;;7.71;71.91;99322.95;105233;1257;66284;-70
2023/01/18 00:55:02;;;;;;;21.00;13.70;;;;;;;7.75;71.75;99325.53;105043;1262;59723;-70
2023/01/18 00:57:29;;;;;;;20.00;14.30;;;;;;;7.79;71.83;99324.67;105249;1261;59650;-69
2023/01/18 00:59:56;;;;;;;27.10;15.90;;;;;;;7.87;71.98;99324.76;104995;1257;65313;-70
2023/01/18 01:02:23;;;;;;;23.50;16.30;;;;;;;7.91;72.11;99323.84;105313;1257;63608;-71
2023/01/18 01:07:36;;;;;;;17.60;7.80;;;;;;;7.94;72.21;99322.36;104946;1257;59659;-70
2023/01/18 01:10:08;;;;;;;23.60;17.10;;;;;;;7.91;72.32;99322.08;105099;1258;59692;-70
2023/01/18 01:26:25;;;;;;;25.30;15.60;;;;;;;8.16;72.95;99309.42;104945;1263;65570;-70
2023/01/18 01:28:52;;;;;;;22.20;15.60;;;;;;;8.21;72.99;99311.34;105049;1258;63788;-70
2023/01/18 01:31:19;;;;;;;23.50;15.10;;;;;;;8.22;72.97;99303.23;105019;1257;66551;-70
2023/01/18 01:33:49;;;;;;;21.40;15.50;;;;;;;8.21;73.00;99300.48;105085;1263;59646;-70
2023/01/18 01:36:20;;;;;;;23.70;14.90;;;;;;;8.25;72.92;99302.19;104948;1256;59964;-70
2023/01/18 01:38:47;;;;;;;21.10;13.60;;;;;;;8.29;72.73;99307.60;105149;1257;65646;-70
2023/01/18 01:41:25;;;;;;;21.50;14.90;;;;;;;8.31;72.74;99308.65;105152;1258;63824;-71
2023/01/18 01:43:53;;;;;;;;;;;;;;;8.31;72.92;99304.79;104966;1263;66230;-69
2023/01/18 01:46:48;;;;;;;14.40;5.70;;;;;;;8.32;73.01;99299.48;104959;1257;59650;-70
2023/01/18 01:49:18;;;;;;;25.00;16.00;;;;;;;8.29;73.03;99299.22;105236;1261;60069;-70
2023/01/18 01:51:57;;;;;;;24.50;16.30;;;;;;;8.26;73.10;99293.41;105119;1263;65509;-69
2023/01/18 01:54:28;;;;;;;26.20;16.50;;;;;;;8.27;72.94;99286.85;105336;1257;63451;-69
2023/01/18 01:57:19;;;;;;;24.30;17.00;;;;;;;8.28;72.67;99278.77;105199;1258;66346;-69
2023/01/18 01:59:59;;;;;;;25.00;16.40;;;;;;;8.29;72.72;99277.94;105089;1260;59752;-70
2023/01/18 02:16:42;;;;;;;19.40;13.80;;;;;;;8.50;72.46;99276.81;103267;1288;604998;-64
2023/01/18 02:19:28;;;;;;;22.70;13.40;;;;;;;8.85;71.29;99281.57;104579;1265;80508;-63
2023/01/18 02:21:59;;;;;;;21.30;14.70;;;;;;;8.86;71.08;99280.73;104899;1267;61583;-62
2023/01/18 02:24:47;;;;;;;25.00;15.90;;;;;;;8.85;71.10;99276.28;104679;1264;65941;-61
2023/01/18 02:27:21;;;;;;;23.70;16.30;;;;;;;8.79;71.12;99273.02;104807;1264;63796;-61
2023/01/18 02:29:48;;;;;;;26.30;16.00;;;;;;;8.70;71.34;99263.10;104924;1263;65138;-66
2023/01/18 02:32:27;;;;;;;24.20;15.40;;;;;;;8.63;71.44;99267.05;104865;1263;59247;-65
2023/01/18 02:35:05;;;;;;;29.70;16.60;;;;;;;8.53;71.55;99264.43;104744;1269;59666;-62
2023/01/18 02:37:41;;;;;;;22.40;15.00;;;;;;;8.44;71.72;99261.41;105370;1263;65730;-66
2023/01/18 02:40:18;;;;;;;21.80;14.20;;;;;;;8.42;71.77;99252.35;105369;1264;62763;-65
2023/01/18 02:48:36;;;;;;;21.00;14.30;;;;;;;8.33;72.12;99260.93;105274;1269;60221;-77
2023/01/18 02:51:04;;;;;;;30.60;16.10;;;;;;;8.28;72.36;99254.65;105314;1264;65489;-73
2023/01/18 02:53:32;;;;;;;24.90;15.70;;;;;;;8.23;72.59;99251.22;105261;1264;63740;-71
2023/01/18 02:56:05;;;;;;;21.80;14.90;;;;;;;8.20;72.71;99249.20;105263;1264;64961;-73
2023/01/18 02:58:34;;;;;;;19.10;14.60;;;;;;;8.24;72.78;99248.52;105492;1266;59682;-70
2023/01/18 03:01:07;;;;;;;26.10;14.30;;;;;;;8.29;72.75;99240.66;105452;1264;59724;-73
2023/01/18 03:03:34;;;;;;;23.40;13.20;;;;;;;8.34;72.79;99237.27;105493;1260;65399;-74
2023/01/18 03:06:02;;;;;;;23.90;14.30;;;;;;;8.37;72.88;99230.39;105578;1264;63909;-73
2023/01/18 03:08:35;;;;;;;21.40;14.00;;;;;;;8.37;73.08;99227.77;105655;1263;65124;-73
2023/01/18 03:11:05;;;;;;;25.40;14.10;;;;;;;8.36;73.17;99232.60;105430;1260;59762;-77
2023/01/18 03:14:02;;;;;;;20.40;12.60;;;;;;;8.33;73.17;99232.18;105633;1260;60008;-72
2023/01/18 03:16:56;;;;;;;19.50;12.60;;;;;;;8.35;73.03;99226.20;105407;1266;66332;-73
2023/01/18 03:22:18;;;;;;;21.20;13.50;;;;;;;8.41;73.15;99228.52;105425;1264;66227;-73
2023/01/18 03:24:45;;;;;;;24.90;14.20;;;;;;;8.40;73.19;99232.02;105428;1260;59748;-73
2023/01/18 03:35:29;;;;;;;19.40;13.40;;;;;;;8.31;73.37;99230.59;105459;1263;65932;-73
2023/01/18 03:37:56;;;;;;;22.10;13.80;;;;;;;8.34;73.44;99234.66;105357;1263;59759;-72
2023/01/18 03:40:26;;;;;;;26.70;14.20;;;;;;;8.37;73.29;99230.61;105434;1267;59730;-72
2023/01/18 03:42:59;;;;;;;20.60;14.20;;;;;;;8.34;73.34;99230.30;105429;1260;65407;-73
2023/01/18 03:45:28;;;;;;;27.20;15.40;;;;;;;8.29;73.64;99229.83;105481;1264;63651;-72
2023/01/18 03:47:55;;;;;;;24.90;15.50;;;;;;;8.26;73.78;99228.75;105439;1264;66240;-72
2023/01/18 03:50:25;;;;;;;23.80;13.80;;;;;;;8.23;74.00;99226.79;105429;1260;59745;-70
2023/01/18 03:52:54;;;;;;;24.10;14.60;;;;;;;8.25;73.96;99227.65;105417;1261;59750;-70
2023/01/18 03:55:25;;;;;;;21.70;14.60;;;;;;;8.29;74.08;99222.58;105535;1263;66500;-72
2023/01/18 03:57:58;;;;;;;20.30;13.60;;;;;;;8.38;74.10;99212.31;105490;1269;62992;-70
2023/01/18 04:00:25;;;;;;;20.50;13.60;;;;;;;8.42;73.97;99205.20;105463;1260;64988;-72
2023/01/18 04:02:52;;;;;;;18.00;13.60;;;;;;;8.40;74.07;99207.08;105561;1261;59679;-73
2023/01/18 04:05:19;;;;;;;24.20;14.40;;;;;;;8.37;74.21;99207.13;105444;1260;61106;-73
2023/01/18 04:07:46;;;;;;;19.60;12.40;;;;;;;8.34;74.28;99212.67;105494;1266;66701;-69
2023/01/18 04:10:13;;;;;;;16.10;11.70;;;;;;;8.35;74.10;99220.73;105424;1261;62476;-68
2023/01/18 04:12:40;;;;;;;19.80;12.30;;;;;;;8.40;74.04;99222.25;105478;1265;66004;-73
2023/01/18 04:15:08;;;;;;;19.20;12.30;;;;;;;8.44;73.89;99220.23;105376;1260;59749;-71
2023/01/18 04:17:35;;;;;;;19.20;12.40;;;;;;;8.44;73.96;99222.86;105440;1266;59651;-71
2023/01/18 04:20:03;;;;;;;20.20;11.70;;;;;;;8.42;74.05;99225.77;105455;1262;66214;-70
2023/01/18 04:22:30;;;;;;;19.70;12.20;;;;;;;8.40;74.20;99225.56;105482;1266;62540;-71
2023/01/18 04:24:57;;;;;;;18.70;12.20;;;;;;;8.41;74.19;99222.80;105469;1265;65872;-70
2023/01/18 04:27:24;;;;;;;17.80;12.10;;;;;;;8.43;73.90;99228.66;105530;1261;59796;-72
2023/01/18 04:29:51;;;;;;;16.20;11.20;;;;;;;8.48;73.73;99229.82;105393;1261;62110;-70
2023/01/18 04:32:18;;;;;;;17.90;12.30;;;;;;;8.49;73.58;99233.05;105387;1261;66678;-72
2023/01/18 04:34:45;;;;;;;19.70;12.40;;;;;;;8.48;73.52;99233.98;105457;1261;63444;-75
2023/01/18 04:37:12;;;;;;;17.20;12.10;;;;;;;8.45;73.68;99232.23;105456;1264;66226;-70
2023/01/18 04:39:39;;;;;;;21.70;13.40;;;;;;;8.41;73.70;99229.91;105496;1264;61310;-71
2023/01/18 04:42:06;;;;;;;16.50;11.60;;;;;;;8.36;73.67;99233.96;105455;1266;60537;-72
2023/01/18 04:44:33;;;;;;;14.90;11.50;;;;;;;8.39;73.71;99226.59;105417;1261;65161;-78
2023/01/18 04:47:00;;;;;;;20.10;12.30;;;;;;;8.44;73.62;99230.15;105396;1261;63614;-70
2023/01/18 04:49:27;;;;;;;19.30;12.60;;;;;;;8.47;73.59;99235.86;105441;1261;65164;-73
2023/01/18 04:51:54;;;;;;;15.90;11.00;;;;;;;8.48;73.76;99238.38;105450;1263;59698;-78
2023/01/18 04:54:21;;;;;;;17.10;12.50;;;;;;;8.48;73.84;99236.64;105533;1260;59721;-73
2023/01/18 04:56:48;;;;;;;20.30;12.80;;;;;;;8.46;73.77;99225.05;105436;1260;66338;-71
2023/01/18 04:59:15;;;;;;;17.40;11.20;;;;;;;8.44;73.71;99221.43;105369;1261;64452;-69
2023/01/18 05:01:43;;;;;;;17.20;10.90;;;;;;;8.45;73.57;99220.27;105437;1265;65733;-70
2023/01/18 05:21:53;;;;;;;19.20;11.40;;;;;;;9.27;71.54;99188.27;105554;1272;59243;-67
2023/01/18 05:24:20;;;;;;;16.30;10.20;;;;;;;9.20;71.52;99192.13;107826;1248;59216;-69
2023/01/18 05:26:48;;;;;;;16.60;9.30;;;;;;;9.15;71.57;99191.90;107617;1249;64370;-69
2023/01/18 05:29:16;;;;;;;15.10;10.00;;;;;;;9.13;71.73;99193.81;107557;1244;62506;-69
2023/01/18 05:31:43;;;;;;;16.60;10.80;;;;;;;9.11;71.79;99192.09;107724;1245;64846;-71
2023/01/18 05:34:10;;;;;;;16.20;10.50;;;;;;;9.05;71.95;99187.17;107557;1250;59316;-69
2023/01/18 05:36:37;;;;;;;16.60;11.10;;;;;;;8.98;72.06;99185.75;107659;1249;59166;-68
2023/01/18 05:39:04;;;;;;;18.10;11.00;;;;;;;8.89;72.31;99186.61;108670;1235;64446;-73
2023/01/18 05:41:31;;;;;;;15.90;11.00;;;;;;;8.83;72.63;99182.06;108605;1238;62528;-70
2023/01/18 05:43:58;;;;;;;14.00;10.00;;;;;;;8.81;72.64;99176.33;108667;1234;64884;-71
2023/01/18 05:46:25;;;;;;;16.50;9.70;;;;;;;8.79;72.59;99167.90;108712;1235;59653;-70
2023/01/18 05:48:58;;;;;;;15.70;10.20;;;;;;;8.78;72.83;99164.71;108411;1235;59600;-68
2023/01/18 05:51:25;;;;;;;18.90;11.50;;;;;;;8.74;73.08;99159.48;108668;1238;65133;-63
2023/01/18 06:07:13;;;;;;;15.90;9.70;;;;;;;8.95;73.13;99137.86;103547;1288;605218;-62
2023/01/18 06:09:40;;;;;;;14.00;9.70;;;;;;;9.38;71.70;99138.60;105007;1265;101210;-63
2023/01/18 06:12:09;;;;;;;15.70;10.40;;;;;;;9.37;71.44;99136.81;105187;1269;59781;-64
2023/01/18 06:14:36;;;;;;;16.20;9.70;;;;;;;9.30;71.50;99135.05;105185;1264;64581;-64
2023/01/18 06:17:04;;;;;;;16.10;11.00;;;;;;;9.21;71.95;99131.09;105236;1270;62506;-64
2023/01/18 06:19:31;;;;;;;17.80;10.80;;;;;;;9.12;72.18;99124.81;105155;1267;66111;-69
2023/01/18 06:21:58;;;;;;;19.70;11.00;;;;;;;9.04;72.32;99126.11;105399;1264;59287;-72
2023/01/18 06:24:25;;;;;;;19.20;10.40;;;;;;;9.01;72.44;99130.20;105128;1264;59135;-68
2023/01/18 06:26:52;;;;;;;18.00;9.70;;;;;;;9.00;72.55;99137.08;105286;1269;65691;-72
2023/01/18 06:29:19;;;;;;;18.60;10.60;;;;;;;9.01;72.87;99137.20;105284;1264;63798;-69
2023/01/18 06:31:46;;;;;;;16.40;10.90;;;;;;;8.99;73.00;99134.20;105056;1264;65775;-70
2023/01/18 06:34:14;;;;;;;20.30;11.30;;;;;;;8.96;73.27;99126.98;105184;1267;59841;-71
2023/01/18 06:36:41;;;;;;;17.80;10.90;;;;;;;8.89;73.37;99121.33;105073;1264;59759;-71
2023/01/18 06:39:07;;;;;;;15.40;10.20;;;;;;;8.83;73.44;99120.30;105044;1270;66179;-70
2023/01/18 06:41:34;;;;;;;17.20;10.30;;;;;;;8.85;73.73;99122.59;105163;1270;62569;-69
2023/01/18 06:44:02;;;;;;;12.80;8.60;;;;;;;8.89;73.66;99122.39;105116;1264;66253;-69
2023/01/18 06:46:29;;;;;;;17.70;9.70;;;;;;;8.94;73.75;99122.48;105261;1268;59633;-70
2023/01/18 06:48:56;;;;;;;23.60;10.70;;;;;;;8.93;73.81;99122.83;105130;1266;59736;-72
2023/01/18 06:51:23;;;;;;;15.50;10.50;;;;;;;8.92;74.07;99127.01;105085;1264;65326;-74
2023/01/18 06:53:50;;;;;;;19.40;11.10;;;;;;;8.91;74.22;99119.57;105073;1264;63594;-71
2023/01/18 06:56:17;;;;;;;17.40;9.90;;;;;;;8.90;74.40;99119.48;105036;1267;66034;-75
2023/01/18 06:58:44;;;;;;;14.80;9.10;;;;;;;8.94;74.42;99120.35;105146;1269;59691;-69
2023/01/18 07:01:11;;;;;;;19.00;9.60;;;;;;;8.99;74.43;99116.75;105149;1267;59638;-72
2023/01/18 07:03:38;;;;;;;16.90;8.20;;;;;;;9.05;74.65;99117.41;105744;1257;66541;-75
2023/01/18 07:06:06;;;;;;;17.20;9.10;;;;;;;9.12;74.83;99110.84;105770;1263;62701;-70
2023/01/18 07:08:34;;;;;;;12.90;8.60;;;;;;;9.15;74.91;99109.11;105772;1257;66193;-71
2023/01/18 07:11:06;;;;;;;21.40;9.40;;;;;;;9.16;75.14;99113.41;105563;1264;59743;-70
2023/01/18 07:13:34;;;;;;;17.40;9.60;;;;;;;9.15;75.22;99114.25;105926;1259;59673;-69
2023/01/18 07:16:01;;;;;;;17.00;9.60;;;;;;;9.13;75.33;99118.20;105566;1257;65398;-71
2023/01/18 07:18:28;;;;;;;16.20;8.90;;;;;;;9.18;75.27;99115.54;105807;1257;63793;-70
2023/01/18 07:21:03;;;;;;;13.80;7.80;;;;;;;9.21;75.15;99122.20;105795;1259;65866;-70
2023/01/18 07:23:30;;;;;;;13.30;7.80;;;;;;;9.24;75.05;99127.48;105600;1263;59631;-74
2023/01/18 07:26:16;;;;;;;12.60;8.90;;;;;;;9.27;75.06;99127.44;105748;1257;59648;-72
2023/01/18 07:28:43;;;;;;;;;;;;;;;9.28;75.21;99126.92;105850;1263;66362;-71
2023/01/18 07:31:10;;;;;;;18.30;9.30;;;;;;;9.28;75.47;99123.15;105861;1262;62653;-72
2023/01/18 07:33:37;;;;;;;17.30;10.00;;;;;;;9.26;75.53;99117.24;105828;1260;66137;-68
2023/01/18 07:36:05;;;;;;;17.60;9.00;;;;;;;9.24;75.64;99110.50;105951;1254;59724;-71
2023/01/18 07:38:32;;;;;;;17.20;7.80;;;;;;;9.27;75.50;99102.71;106024;1254;59773;-69
2023/01/18 07:41:07;;;;;;;13.40;8.00;;;;;;;9.32;75.48;99105.11;105945;1254;66558;-71
2023/01/18 07:43:36;;;;;;;19.90;7.90;;;;;;;9.35;75.53;99107.39;106042;1254;62326;-69
2023/01/18 07:46:04;;;;;;;17.50;9.80;;;;;;;9.36;75.62;99105.95;105970;1254;66199;-68
2023/01/18 07:48:31;;;;;;;16.60;9.10;;;;;;;9.35;75.88;99103.59;106056;1254;59939;-69
2023/01/18 07:51:02;;;;;;;14.60;8.70;;;;;;;9.38;76.08;99104.52;105973;1254;59586;-71
2023/01/18 07:53:31;;;;;;;16.80;8.00;;;;;;;9.46;76.19;99099.34;105973;1253;65235;-69
2023/01/18 07:56:00;;;;;;;16.20;8.40;;;;;;;9.56;76.11;99091.13;105877;1256;63755;-69
2023/01/18 07:58:27;;;;;;;17.50;8.30;;;;;;;9.61;76.01;99090.58;105989;1254;66688;-68
2023/01/18 08:00:54;;;;;;;16.10;9.50;;;;;;;9.64;76.05;99095.20;105933;1254;59787;-70
2023/01/18 08:03:21;;;;;;;16.30;10.10;;;;;;;9.65;76.24;99095.41;106089;1258;59620;-71
2023/01/18 08:05:48;;;;;;;19.60;9.50;;;;;;;9.69;76.19;99096.80;105952;1254;65364;-69
2023/01/18 08:08:15;;;;;;;16.70;8.80;;;;;;;9.75;76.01;99101.18;106048;1254;63294;-71
2023/01/18 08:10:43;;;;;;;15.90;9.40;;;;;;;9.80;75.89;99100.80;105975;1254;65188;-71
2023/01/18 08:13:10;;;;;;;17.10;9.30;;;;;;;9.86;75.91;99100.57;105958;1254;60232;-69
2023/01/18 08:15:37;;;;;;;17.70;10.20;;;;;;;9.90;75.85;99100.05;105986;1259;59653;-73
2023/01/18 08:18:05;;;;;;;16.90;10.40;;;;;;;9.91;75.77;99095.26;105979;1256;66265;-69
2023/01/18 08:20:32;;;;;;;20.40;9.60;;;;;;;9.90;75.75;99093.70;106070;1257;62708;-69
2023/01/18 08:23:00;;;;;;;18.00;10.10;;;;;;;9.93;75.61;99088.23;105994;1254;66146;-69
2023/01/18 08:25:28;;;;;;;18.00;10.90;;;;;;;9.97;75.53;99087.27;106039;1254;60025;-67
2023/01/18 08:27:57;;;;;;;20.80;12.30;;;;;;;10.02;75.50;99089.54;106270;1254;59966;-69
2023/01/18 08:30:27;;;;;;;22.50;12.40;;;;;;;10.06;75.64;99086.58;106022;1254;65390;-70
2023/01/18 08:32:57;;;;;;;24.20;13.80;;;;;;;10.07;75.67;99083.48;106146;1254;63363;-68
2023/01/18 08:35:26;;;;;;;24.30;12.50;;;;;;;10.09;75.77;99082.58;105993;1254;64864;-68
2023/01/18 08:37:53;;;;;;;21.30;10.50;;;;;;;10.17;75.65;99083.48;105979;1254;59519;-71
2023/01/18 08:40:21;;;;;;;22.70;10.70;;;;;;;10.25;75.43;99073.85;105929;1254;59561;-69
2023/01/18 08:42:48;;;;;;;22.40;11.30;;;;;;;10.32;75.46;99065.25;106043;1259;65350;-68
2023/01/18 08:45:16;;;;;;;23.90;11.60;;;;;;;10.35;75.44;99058.30;105947;1257;62732;-68
2023/01/18 08:47:43;;;;;;;23.20;13.30;;;;;;;10.38;75.73;99055.67;105923;1254;66281;-68
2023/01/18 08:50:10;;;;;;;20.30;11.40;;;;;;;10.41;75.75;99059.61;106030;1255;59727;-68
2023/01/18 08:52:37;;;;;;;19.90;10.90;;;;;;;10.48;75.66;99061.23;105945;1254;59597;-67
2023/01/18 08:55:05;;;;;;;20.20;10.50;;;;;;;10.55;75.41;99059.31;106079;1254;66379;-69
2023/01/18 08:57:32;;;;;;;20.40;11.30;;;;;;;10.60;75.37;99057.69;106039;1254;63586;-71
2023/01/18 08:59:59;;;;;;;23.70;12.30;;;;;;;10.64;75.37;99055.80;106001;1254;66419;-72
2023/01/18 09:02:26;;;;;;;23.90;13.50;;;;;;;10.67;75.26;99052.80;105996;1259;59397;-68
2023/01/18 09:04:54;;;;;;;29.80;13.30;;;;;;;10.66;75.07;99048.73;105904;1257;59809;-67
2023/01/18 09:07:21;;;;;;;29.70;13.20;;;;;;;10.69;75.01;99047.02;105930;1254;66574;-70
2023/01/18 09:09:48;;;;;;;24.40;11.80;;;;;;;10.75;75.00;99049.23;105878;1260;64103;-69
2023/01/18 09:12:15;;;;;;;26.40;15.00;;;;;;;10.76;74.98;99044.88;105858;1254;64840;-67
2023/01/18 09:14:42;;;;;;;27.50;16.40;;;;;;;10.76;75.07;99040.31;105914;1254;59669;-72
2023/01/18 09:17:09;;;;;;;26.30;15.60;;;;;;;10.75;75.02;99031.70;105968;1254;59624;-69
2023/01/18 09:19:36;;;;;;;30.80;15.60;;;;;;;10.72;75.08;99031.97;105837;1254;66420;-70
2023/01/18 09:22:04;;;;;;;31.10;16.70;;;;;;;10.72;74.98;99030.93;105814;1259;62702;-71
2023/01/18 09:24:32;;;;;;;31.30;17.40;;;;;;;10.76;74.94;99025.95;105857;1256;64883;-71
2023/01/18 09:26:59;;;;;;;27.80;17.70;;;;;;;10.81;74.82;99023.50;105974;1259;59739;-69
2023/01/18 09:29:26;;;;;;;35.10;17.70;;;;;;;10.83;74.82;99028.94;105978;1254;59691;-72
2023/01/18 09:31:54;;;;;;;30.90;15.80;;;;;;;10.82;74.88;99029.23;105930;1259;66515;-71
2023/01/18 09:34:22;;;;;;;21.20;14.40;;;;;;;10.81;74.92;99025.44;105948;1253;62565;-69
2023/01/18 09:36:50;;;;;;;29.60;18.10;;;;;;;10.82;74.62;99031.95;105921;1254;73866;-68
2023/01/18 09:39:18;;;;;;;27.70;16.30;;;;;;;10.85;74.52;99031.15;105912;1254;59659;-67
2023/01/18 09:55:17;;;;;;;22.20;12.90;;;;;;;11.24;73.98;99026.34;103709;1285;604119;-73
2023/01/18 09:58:00;;;;;;;25.90;13.80;;;;;;;11.64;72.17;99017.69;104967;1267;98603;-72
2023/01/18 10:00:29;;;;;;;21.60;12.00;;;;;;;11.58;72.02;99012.03;105149;1267;59249;-74
2023/01/18 10:02:59;;;;;;;28.70;13.10;;;;;;;11.53;71.91;99012.32;105116;1268;64387;-73
2023/01/18 10:05:29;;;;;;;23.50;14.00;;;;;;;11.49;71.86;99010.63;105230;1266;62352;-72
2023/01/18 10:08:02;;;;;;;21.80;15.20;;;;;;;11.48;72.05;99004.94;105075;1266;66200;-75
2023/01/18 10:10:38;;;;;;;32.30;14.60;;;;;;;11.48;72.08;98999.02;105253;1266;59245;-74
2023/01/18 10:13:13;;;;;;;28.70;16.40;;;;;;;11.44;72.10;98992.92;105069;1272;60966;-73
2023/01/18 10:15:40;;;;;;;31.00;16.40;;;;;;;11.39;72.18;98996.93;104995;1267;64297;-71
2023/01/18 10:18:07;;;;;;;31.80;13.90;;;;;;;11.35;72.23;98995.46;105019;1272;62422;-69
2023/01/18 10:20:44;;;;;;;28.90;15.30;;;;;;;11.34;72.11;98994.64;105149;1267;66176;-69
2023/01/18 10:23:16;;;;;;;32.20;15.70;;;;;;;11.36;72.06;98992.92;105082;1267;59626;-69
2023/01/18 10:25:52;;;;;;;33.70;17.90;;;;;;;11.38;72.11;98991.65;105087;1272;59772;-70
2023/01/18 10:28:28;;;;;;;;;;;;;;;11.39;72.32;98990.30;105075;1272;66775;-72
2023/01/18 10:31:34;;;;;;;38.80;20.70;;;;;;;11.40;72.41;98988.82;105100;1267;63397;-72
2023/01/18 10:34:03;;;;;;;35.60;18.70;;;;;;;11.38;72.41;98979.55;105080;1272;64932;-71
2023/01/18 10:36:40;;;;;;;31.70;15.90;;;;;;;11.36;72.28;98973.91;104998;1267;59673;-68
2023/01/18 10:39:21;;;;;;;33.40;14.90;;;;;;;11.40;72.23;98978.29;105091;1267;59724;-71
2023/01/18 10:41:48;;;;;;;28.20;16.20;;;;;;;11.45;72.09;98979.80;104992;1266;66349;-69
2023/01/18 10:44:16;;;;;;;35.50;16.70;;;;;;;11.50;72.00;98975.05;105038;1272;72626;-71
2023/01/18 10:46:44;;;;;;;33.70;18.40;;;;;;;11.53;72.02;98974.06;105157;1266;66262;-67
2023/01/18 10:49:32;;;;;;;33.30;16.00;;;;;;;11.53;72.03;98967.57;105055;1267;59754;-68
2023/01/18 10:52:28;;;;;;;31.60;16.30;;;;;;;11.51;71.99;98964.58;105136;1267;59830;-69
2023/01/18 10:55:00;;;;;;;34.80;14.30;;;;;;;11.56;71.88;98961.80;105214;1272;65781;-69
2023/01/18 10:57:29;;;;;;;37.50;16.60;;;;;;;11.61;71.71;98955.86;105212;1266;64361;-69
2023/01/18 10:59:57;;;;;;;37.00;19.30;;;;;;;11.62;71.65;98959.55;105040;1267;66505;-67
2023/01/18 11:17:10;;;;;;;26.90;12.10;;;;;;;12.02;70.91;98951.42;103747;1282;604879;-72
2023/01/18 11:19:38;;;;;;;32.20;13.80;;;;;;;12.55;69.36;98960.32;105841;1254;79719;-73
2023/01/18 11:22:12;;;;;;;27.20;12.90;;;;;;;12.56;69.08;98961.52;106064;1253;59382;-71
2023/01/18 11:24:39;;;;;;;32.60;11.70;;;;;;;12.52;69.11;98959.08;105985;1254;64185;-68
2023/01/18 11:27:24;;;;;;;25.30;10.30;;;;;;;12.44;68.83;98960.02;105878;1254;61845;-67
2023/01/18 11:29:51;;;;;;;16.20;8.50;;;;;;;12.34;68.84;98967.66;105851;1257;72888;-68
2023/01/18 11:32:25;;;;;;;22.90;8.80;;;;;;;12.30;68.89;98964.08;105831;1259;59206;-71
2023/01/18 11:34:53;;;;;;;19.20;9.00;;;;;;;12.26;68.99;98967.15;105839;1256;59168;-70
2023/01/18 11:37:34;;;;;;;14.80;7.90;;;;;;;12.21;69.24;98970.41;105935;1261;65777;-72
2023/01/18 11:40:19;;;;;;;11.40;7.40;;;;;;;12.16;69.32;98977.31;105867;1254;63864;-71
2023/01/18 11:42:50;;;;;;;16.40;6.90;;;;;;;12.10;69.43;98980.66;105809;1261;66209;-63
2023/01/18 11:48:40;;;;;;;13.70;7.20;;;;;;;12.07;69.54;98972.63;105632;1257;60121;-62
2023/01/18 11:51:35;;;;;;;17.80;8.20;;;;;;;12.05;69.67;98977.09;105715;1262;66580;-65
2023/01/18 11:54:15;;;;;;;15.70;8.10;;;;;;;12.01;69.77;98968.45;105743;1258;63765;-66
2023/01/18 12:27:39;;;;;;;19.60;7.50;;;;;;;12.61;67.69;98968.58;105736;1273;72275;-71
2023/01/18 12:30:21;;;;;;;17.80;6.90;;;;;;;12.52;67.78;98965.11;107692;1249;64814;-72
2023/01/18 12:33:16;;;;;;;13.00;6.10;;;;;;;12.52;67.90;98968.70;107636;1244;59362;-72
2023/01/18 12:36:06;;;;;;;19.60;7.40;;;;;;;12.52;67.91;98970.30;107206;1254;59354;-71
2023/01/18 12:38:33;;;;;;;15.40;8.10;;;;;;;12.48;67.98;98973.88;107723;1247;64426;-70
2023/01/18 12:41:10;;;;;;;17.40;8.70;;;;;;;12.42;68.16;98980.10;107633;1248;62414;-68
2023/01/18 12:43:40;;;;;;;14.60;7.10;;;;;;;12.36;68.21;98986.58;107684;1248;65214;-69
2023/01/18 12:46:32;;;;;;;15.30;6.70;;;;;;;12.30;68.32;98983.64;107730;1245;60777;-71
2023/01/18 12:49:02;;;;;;;16.30;7.50;;;;;;;12.28;68.55;98984.04;107769;1247;59649;-73
2023/01/18 12:51:33;;;;;;;14.60;7.50;;;;;;;12.28;68.53;98976.02;107582;1245;65128;-68
2023/01/18 12:54:02;;;;;;;17.90;7.20;;;;;;;12.28;68.68;98977.86;107719;1250;61474;-65
2023/01/18 12:56:41;;;;;;;13.00;7.80;;;;;;;12.25;68.79;98978.08;107624;1247;65809;-70
2023/01/18 12:59:14;;;;;;;16.50;7.70;;;;;;;12.23;68.85;98974.67;107746;1247;59634;-73
2023/01/18 13:01:44;;;;;;;23.50;7.60;;;;;;;12.20;68.93;98975.30;107693;1249;59670;-70
2023/01/18 13:04:16;;;;;;;18.80;7.30;;;;;;;12.22;68.98;98971.25;108009;1244;65217;-69
2023/01/18 13:06:48;;;;;;;16.20;7.40;;;;;;;12.27;68.88;98969.52;107827;1243;61419;-67
2023/01/18 13:09:17;;;;;;;19.20;8.40;;;;;;;12.27;68.91;98972.29;107806;1246;64899;-76
2023/01/18 13:11:44;;;;;;;19.60;8.40;;;;;;;12.24;69.05;98971.91;108199;1241;59604;-73
2023/01/18 13:14:27;;;;;;;20.20;7.50;;;;;;;12.20;69.13;98969.84;107900;1241;59667;-72
2023/01/18 13:17:03;;;;;;;15.70;7.80;;;;;;;12.18;69.18;98961.51;107903;1241;65609;-70
2023/01/18 13:19:42;;;;;;;17.20;7.30;;;;;;;12.21;69.14;98961.98;108018;1246;61455;-70
2023/01/18 13:22:23;;;;;;;10.90;6.80;;;;;;;12.28;69.11;98962.90;108002;1245;64828;-71
2023/01/18 13:25:18;;;;;;;16.60;8.00;;;;;;;12.33;69.01;98960.73;107919;1240;59521;-70
2023/01/18 13:28:02;;;;;;;18.70;8.50;;;;;;;12.34;68.96;98961.67;107873;1240;59627;-70
2023/01/18 13:30:48;;;;;;;18.70;8.50;;;;;;;12.31;68.91;98960.78;107864;1242;65009;-69
2023/01/18 13:33:21;;;;;;;19.10;8.00;;;;;;;12.28;69.02;98961.45;107771;1240;62208;-62
2023/01/18 13:35:50;;;;;;;28.60;8.40;;;;;;;12.26;69.07;98963.94;107776;1246;64565;-67
2023/01/18 13:38:18;;;;;;;19.50;7.20;;;;;;;12.28;68.94;98959.53;107995;1244;60071;-68
2023/01/18 13:40:54;;;;;;;16.70;7.50;;;;;;;12.31;69.02;98963.72;108081;1244;59648;-72
2023/01/18 13:43:36;;;;;;;16.80;7.90;;;;;;;12.35;68.99;98965.91;107861;1240;64333;-67
2023/01/18 13:46:19;;;;;;;19.10;8.20;;;;;;;12.37;68.98;98963.45;107947;1247;61539;-68
2023/01/18 13:49:01;;;;;;;18.30;8.90;;;;;;;12.35;68.97;98970.20;107838;1246;65025;-65
2023/01/18 13:51:40;;;;;;;22.80;9.20;;;;;;;12.33;69.01;98981.34;108413;1240;59622;-65
2023/01/18 13:57:21;;;;;;;19.60;7.70;;;;;;;12.10;69.65;98985.50;101956;1293;606843;-70
2023/01/18 13:59:49;;;;;;;13.90;7.20;;;;;;;12.30;69.02;98989.06;105253;1269;60743;-68
2023/01/18 14:02:40;;;;;;;19.90;8.70;;;;;;;12.32;69.07;98992.33;105636;1267;59356;-70